This is the latest recevied weather packets stored in our database for station/object SR9WXZ. If no packets are shown the sender has not sent any weather packets the latest 1 day(s).
| Time | Temp. | Humidity | Pressure | Rain* | Wind** | Luminosity | Snow |
|---|---|---|---|---|---|---|---|
| 1777970825 | 23.33° C | 100% | 0 hPa | - | 3.13 m/s, 117° | - | - |
| 1777970524 | 23.33° C | 100% | 0 hPa | - | 3.58 m/s, 122° | - | - |
| 1777970224 | 23.33° C | 100% | 0 hPa | - | 4.92 m/s, 118° | - | - |
| 1777969924 | 23.33° C | 100% | 0 hPa | - | 4.47 m/s, 122° | - | - |
| 1777969624 | 22.78° C | 100% | 0 hPa | - | 3.58 m/s, 119° | - | - |
| 1777969324 | 22.78° C | 100% | 0 hPa | - | 4.02 m/s, 121° | - | - |
| 1777969023 | 22.78° C | 100% | 0 hPa | - | 3.58 m/s, 118° | - | - |
| 1777968723 | 22.78° C | 100% | 0 hPa | - | 4.02 m/s, 117° | - | - |
| 1777968423 | 22.22° C | 100% | 0 hPa | - | 4.02 m/s, 121° | - | - |
| 1777968122 | 22.22° C | 100% | 0 hPa | - | 6.26 m/s, 122° | - | - |
| 1777967823 | 22.22° C | 100% | 0 hPa | - | 4.92 m/s, 123° | - | - |
| 1777967522 | 22.22° C | 100% | 0 hPa | - | 4.02 m/s, 120° | - | - |
| 1777967222 | 22.22° C | 100% | 0 hPa | - | 4.02 m/s, 126° | - | - |
| 1777966922 | 21.67° C | 100% | 0 hPa | - | 2.68 m/s, 122° | - | - |
| 1777966622 | 21.67° C | 100% | 0 hPa | - | 2.68 m/s, 121° | - | - |
| 1777966008 | 21.67° C | 100% | 0 hPa | - | 4.92 m/s, 126° | - | - |
| 1777965408 | 20° C | 100% | 0 hPa | - | 1.79 m/s, 120° | - | - |
| 1777965108 | 16.67° C | 100% | 0 hPa | - | 0.89 m/s, 91° | - | - |
| 1777964806 | 16.11° C | 100% | 0 hPa | - | 1.34 m/s, 95° | - | - |
| 1777964506 | 16.67° C | 100% | 0 hPa | - | 0.89 m/s, 97° | - | - |
| 1777964206 | 15° C | 100% | 0 hPa | - | 1.34 m/s, 98° | - | - |
| 1777963906 | 15° C | 100% | 0 hPa | - | 0.89 m/s, 96° | - | - |
| 1777963605 | 14.44° C | 100% | 0 hPa | - | 0.89 m/s, 97° | - | - |
| 1777963305 | 13.89° C | 100% | 0 hPa | - | 0.89 m/s, 97° | - | - |
| 1777963004 | 13.89° C | 100% | 0 hPa | - | 0.89 m/s, 97° | - | - |
* Rain since midnight (hover to see other rain measurements)
** Current wind speed in m/s (hover to see current wind gust speed)